createdAt,value
2023-02-12T06:01:14.850Z,74.70
2023-02-12T06:06:18.546Z,74.90
2023-02-12T06:11:22.318Z,74.70
2023-02-12T06:16:29.002Z,74.90
2023-02-12T06:21:34.216Z,74.60
2023-02-12T06:26:37.777Z,74.40
2023-02-12T06:31:43.200Z,75.50
2023-02-12T06:36:48.581Z,75.70
2023-02-12T06:41:52.296Z,75.80
2023-02-12T06:46:58.735Z,75.50
2023-02-12T06:52:03.510Z,75.40
2023-02-12T06:57:07.318Z,75.30
2023-02-12T07:02:12.904Z,75.10
2023-02-12T07:07:16.499Z,75.00
2023-02-12T07:12:20.131Z,75.10
2023-02-12T07:17:25.201Z,75.20
2023-02-12T07:22:28.956Z,75.30
2023-02-12T07:27:32.693Z,75.50
2023-02-12T07:32:37.694Z,75.50
2023-02-12T07:37:41.363Z,75.50
2023-02-12T07:42:45.002Z,75.30
2023-02-12T07:47:50.029Z,75.30
2023-02-12T07:52:53.725Z,75.30
2023-02-12T07:57:57.339Z,75.10
2023-02-12T08:03:02.439Z,75.30
2023-02-12T08:08:06.174Z,75.30
2023-02-12T08:13:09.755Z,75.10
2023-02-12T08:18:14.737Z,75.30
2023-02-12T08:23:18.364Z,75.20
2023-02-12T08:28:23.283Z,74.90
2023-02-12T08:33:28.346Z,74.60
2023-02-12T08:38:33.320Z,74.60
2023-02-12T08:43:37.532Z,74.40
2023-02-12T08:48:42.873Z,74.60
2023-02-12T08:53:48.373Z,75.40
2023-02-12T08:58:52.674Z,75.10
2023-02-12T09:03:57.703Z,75.00
2023-02-12T09:09:01.468Z,74.50
2023-02-12T09:14:07.089Z,74.10
2023-02-12T09:19:13.896Z,73.50
2023-02-12T09:29:21.674Z,73.60
2023-02-12T09:34:26.688Z,74.30
2023-02-12T09:39:32.283Z,74.40
2023-02-12T09:44:44.979Z,74.80
2023-02-12T09:50:33.053Z,75.10
2023-02-12T09:55:37.385Z,75.30
2023-02-12T10:00:40.782Z,75.30
2023-02-12T10:05:52.079Z,75.60
2023-02-12T10:11:02.218Z,76.00
2023-02-12T10:16:15.634Z,75.90
2023-02-12T10:21:34.875Z,76.40
2023-02-12T10:26:42.471Z,76.90
2023-02-12T10:31:50.071Z,76.20
2023-02-12T10:37:03.034Z,76.10
2023-02-12T10:42:14.086Z,76.60
2023-02-12T10:47:21.679Z,76.50
2023-02-12T10:52:36.583Z,77.20
2023-02-12T10:57:40.862Z,75.80
2023-02-12T11:03:02.153Z,88.50
2023-02-12T11:08:08.171Z,74.40
2023-02-12T11:13:25.288Z,73.60
2023-02-12T11:18:33.028Z,71.50
2023-02-12T11:23:40.038Z,70.10
2023-02-12T11:28:54.784Z,69.80
2023-02-12T11:34:15.217Z,70.60
2023-02-12T11:39:24.862Z,69.80
2023-02-12T11:44:31.173Z,69.80
2023-02-12T11:49:39.817Z,70.20
2023-02-12T11:54:48.235Z,71.30
2023-02-12T11:59:52.745Z,70.40
2023-02-12T12:04:57.630Z,71.10
2023-02-12T12:10:08.714Z,65.50
2023-02-12T12:15:33.723Z,64.90
2023-02-12T12:20:42.693Z,65.50
2023-02-12T12:25:50.805Z,64.60
2023-02-12T12:31:11.751Z,64.00
2023-02-12T12:36:51.300Z,63.10
2023-02-12T12:42:24.768Z,63.20
2023-02-12T12:47:39.223Z,62.50
2023-02-12T12:53:04.114Z,63.00
2023-02-12T12:58:14.050Z,61.60
2023-02-12T13:03:52.881Z,60.60
2023-02-12T13:09:15.987Z,59.10
2023-02-12T13:14:36.633Z,59.30
2023-02-12T13:19:48.390Z,59.60
2023-02-12T13:24:59.225Z,58.30
2023-02-12T13:30:08.731Z,57.70
2023-02-12T13:35:19.586Z,57.70
2023-02-12T13:40:25.113Z,57.80
2023-02-12T13:45:42.006Z,57.20
2023-02-12T13:50:57.272Z,56.90
2023-02-12T13:56:08.920Z,57.30
2023-02-12T14:01:15.493Z,55.90
2023-02-12T14:06:21.711Z,55.30
2023-02-12T14:11:27.603Z,55.00
2023-02-12T14:16:41.467Z,55.20
2023-02-12T14:31:54.611Z,55.10
2023-02-12T14:37:13.844Z,54.90
2023-02-12T14:43:00.458Z,74.10
2023-02-12T14:48:06.553Z,54.80
2023-02-12T14:53:26.573Z,54.60
2023-02-12T15:03:44.102Z,54.80
2023-02-12T15:08:53.941Z,55.00
2023-02-12T15:14:02.336Z,54.70
2023-02-12T15:19:21.801Z,54.90
2023-02-12T15:24:27.234Z,55.20
2023-02-12T15:29:37.210Z,55.80
2023-02-12T15:34:44.813Z,56.30
2023-02-12T15:55:07.400Z,59.00
2023-02-12T16:00:23.564Z,60.70
2023-02-12T16:15:40.316Z,76.30
2023-02-12T16:20:46.868Z,59.20
2023-02-12T17:17:11.102Z,82.90
2023-02-12T19:24:17.480Z,78.20
2023-02-12T20:40:28.759Z,68.70
2023-02-12T20:45:32.587Z,90.70
2023-02-12T20:50:36.251Z,87.10
2023-02-12T20:55:41.543Z,69.00
2023-02-12T21:11:01.687Z,69.10
2023-02-12T21:16:10.762Z,69.40
2023-02-12T21:21:16.119Z,69.40
2023-02-12T21:26:23.009Z,69.30
2023-02-12T21:31:28.746Z,69.30
2023-02-12T21:36:34.664Z,90.60
2023-02-12T21:41:41.504Z,69.60
2023-02-12T21:46:46.586Z,69.70
2023-02-12T22:12:09.916Z,70.10
2023-02-12T22:17:13.530Z,70.70
2023-02-12T22:22:17.173Z,70.80
2023-02-12T22:27:22.132Z,71.00
2023-02-12T22:32:25.928Z,70.90
2023-02-12T22:37:30.086Z,71.10
2023-02-12T22:42:35.168Z,71.00
2023-02-12T22:47:38.814Z,70.40
2023-02-12T22:52:42.515Z,71.50
2023-02-12T22:57:47.557Z,72.30
2023-02-12T23:02:51.214Z,72.10
2023-02-12T23:07:54.892Z,71.70
2023-02-12T23:13:00.588Z,72.10
2023-02-12T23:18:04.318Z,72.30
2023-02-12T23:23:07.924Z,71.90
2023-02-12T23:28:12.988Z,71.80
